Time;durP1;ratioP1;P1;durP2;ratioP2;P2;SDS_P1;SDS_P2;PMS_P1;PMS_P2;Temp;Humidity;BMP_temperature;BMP_pressure;BME280_temperature;BME280_humidity;BME280_pressure;Samples;Min_cycle;Max_cycle;Signal;HPM_P1;HPM_P2
2023/08/02 00:02:01;;;;;;;10.15;2.70;;;;;;;;;;4951389;28;92700;-84
2023/08/02 00:04:28;;;;;;;9.13;2.60;;;;;;;;;;4954305;28;92395;-84
2023/08/02 00:06:54;;;;;;;10.90;2.78;;;;;;;;;;4940538;28;93884;-84
2023/08/02 00:09:21;;;;;;;9.98;2.60;;;;;;;;;;4935408;28;95291;-84
2023/08/02 00:11:51;;;;;;;7.65;2.72;;;;;;;;;;4951436;28;95406;-83
2023/08/02 00:14:17;;;;;;;10.20;2.53;;;;;;;;;;4949751;28;92545;-83
2023/08/02 00:16:44;;;;;;;12.20;3.10;;;;;;;;;;4939670;28;92446;-84
2023/08/02 00:19:11;;;;;;;8.38;2.30;;;;;;;;;;4951430;28;92735;-83
2023/08/02 00:21:42;;;;;;;10.30;2.65;;;;;;;;;;4945443;28;94043;-83
2023/08/02 00:24:09;;;;;;;8.57;2.30;;;;;;;;;;4940988;28;92483;-84
2023/08/02 00:26:36;;;;;;;7.65;2.50;;;;;;;;;;4952932;28;93374;-83
2023/08/02 00:29:06;;;;;;;8.00;2.60;;;;;;;;;;4949651;28;93030;-83
2023/08/02 00:31:32;;;;;;;8.57;2.47;;;;;;;;;;4941992;28;97831;-83
2023/08/02 00:33:59;;;;;;;10.00;2.55;;;;;;;;;;4932303;28;95574;-83
2023/08/02 00:36:25;;;;;;;9.32;2.70;;;;;;;;;;4944673;28;92947;-83
2023/08/02 00:38:52;;;;;;;11.32;3.00;;;;;;;;;;4934107;28;93241;-84
2023/08/02 00:41:18;;;;;;;8.65;2.30;;;;;;;;;;4951256;28;93073;-82
2023/08/02 00:43:46;;;;;;;10.52;2.85;;;;;;;;;;4954878;28;92384;-85
2023/08/02 00:46:14;;;;;;;9.98;2.63;;;;;;;;;;4950169;28;92886;-84
2023/08/02 00:48:42;;;;;;;9.85;2.70;;;;;;;;;;4955743;28;93722;-84
2023/08/02 00:51:13;;;;;;;9.48;3.15;;;;;;;;;;4948029;28;92047;-84
2023/08/02 00:53:40;;;;;;;8.48;3.00;;;;;;;;;;4959634;28;95404;-85
2023/08/02 00:56:06;;;;;;;11.95;3.63;;;;;;;;;;4967500;28;92448;-85
2023/08/02 00:58:33;;;;;;;11.95;3.72;;;;;;;;;;4967610;28;94802;-85
2023/08/02 01:01:07;;;;;;;11.07;3.38;;;;;;;;;;4973216;28;92321;-85
2023/08/02 01:03:37;;;;;;;11.93;3.58;;;;;;;;;;4976022;28;92011;-85
2023/08/02 01:06:09;;;;;;;10.90;4.05;;;;;;;;;;4974594;28;92386;-85
2023/08/02 01:08:38;;;;;;;10.65;4.03;;;;;;;;;;4948944;28;92560;-85
2023/08/02 01:11:10;;;;;;;12.95;4.43;;;;;;;;;;4958031;28;92801;-84
2023/08/02 01:13:41;;;;;;;11.55;4.30;;;;;;;;;;4909231;28;96148;-83
2023/08/02 01:16:07;;;;;;;10.70;3.20;;;;;;;;;;4938295;28;91778;-83
2023/08/02 01:18:34;;;;;;;13.35;4.20;;;;;;;;;;4947000;28;93395;-83
2023/08/02 01:21:01;;;;;;;10.77;4.03;;;;;;;;;;4952588;28;93064;-83
2023/08/02 01:23:28;;;;;;;9.07;3.38;;;;;;;;;;4938544;28;94844;-84
2023/08/02 01:25:55;;;;;;;13.65;4.28;;;;;;;;;;4946971;28;95371;-83
2023/08/02 01:28:23;;;;;;;9.35;3.85;;;;;;;;;;4945124;28;94655;-83
2023/08/02 01:30:51;;;;;;;12.70;4.20;;;;;;;;;;4946876;28;92410;-84
2023/08/02 01:33:18;;;;;;;11.50;4.28;;;;;;;;;;4935034;28;93172;-84
2023/08/02 01:35:45;;;;;;;10.40;4.05;;;;;;;;;;4942962;28;92911;-84
2023/08/02 01:38:11;;;;;;;11.02;3.50;;;;;;;;;;4941031;28;93977;-84
2023/08/02 01:40:37;;;;;;;10.70;3.50;;;;;;;;;;4948830;28;92552;-87
2023/08/02 01:43:04;;;;;;;11.75;3.70;;;;;;;;;;4951555;28;92595;-85
2023/08/02 01:45:31;;;;;;;9.90;3.78;;;;;;;;;;4953329;28;92974;-85
2023/08/02 01:47:57;;;;;;;10.13;3.95;;;;;;;;;;4951215;28;96034;-83
2023/08/02 01:50:24;;;;;;;11.10;3.55;;;;;;;;;;4944465;28;92621;-85
2023/08/02 01:52:54;;;;;;;8.77;3.40;;;;;;;;;;4949236;28;93053;-84
2023/08/02 01:55:20;;;;;;;10.43;3.92;;;;;;;;;;4948994;28;92389;-86
2023/08/02 01:57:47;;;;;;;10.63;3.70;;;;;;;;;;4952915;28;92477;-86
2023/08/02 02:00:14;;;;;;;9.63;3.75;;;;;;;;;;4951572;28;95579;-87
2023/08/02 02:02:42;;;;;;;8.77;3.42;;;;;;;;;;4936019;28;92472;-85
2023/08/02 02:05:09;;;;;;;8.88;3.25;;;;;;;;;;4958545;28;95555;-86
2023/08/02 02:07:35;;;;;;;10.05;3.30;;;;;;;;;;4938723;28;95437;-85
2023/08/02 02:10:02;;;;;;;9.73;3.33;;;;;;;;;;4940941;28;92453;-86
2023/08/02 02:12:29;;;;;;;9.07;3.38;;;;;;;;;;4948766;28;94950;-85
2023/08/02 02:14:56;;;;;;;8.68;3.05;;;;;;;;;;4942156;28;94341;-87
2023/08/02 02:17:23;;;;;;;10.88;3.53;;;;;;;;;;4951987;28;93429;-86
2023/08/02 02:19:49;;;;;;;9.27;3.40;;;;;;;;;;4950597;28;94351;-86
2023/08/02 02:22:16;;;;;;;9.88;3.22;;;;;;;;;;4945910;28;93242;-87
2023/08/02 02:24:44;;;;;;;9.45;3.17;;;;;;;;;;4935190;28;93651;-87
2023/08/02 02:27:10;;;;;;;8.27;2.90;;;;;;;;;;4942360;28;95974;-86
2023/08/02 02:29:37;;;;;;;8.68;2.78;;;;;;;;;;4941769;28;92124;-87
2023/08/02 02:32:04;;;;;;;7.57;2.55;;;;;;;;;;4946027;28;94362;-86
2023/08/02 02:34:30;;;;;;;7.70;2.65;;;;;;;;;;4932620;28;94264;-87
2023/08/02 02:36:57;;;;;;;7.35;2.63;;;;;;;;;;4947949;28;94922;-86
2023/08/02 02:39:24;;;;;;;9.18;2.80;;;;;;;;;;4936727;28;94187;-86
2023/08/02 02:41:50;;;;;;;7.85;2.85;;;;;;;;;;4946123;28;92416;-86
2023/08/02 02:44:17;;;;;;;8.35;2.58;;;;;;;;;;4941061;28;93374;-87
2023/08/02 02:46:43;;;;;;;7.18;2.22;;;;;;;;;;4952507;28;92729;-88
2023/08/02 02:49:11;;;;;;;8.40;3.20;;;;;;;;;;4950382;28;92611;-87
2023/08/02 02:51:38;;;;;;;6.63;2.60;;;;;;;;;;4934475;28;92809;-83
2023/08/02 02:54:04;;;;;;;7.72;2.58;;;;;;;;;;4952054;28;92873;-82
2023/08/02 02:56:31;;;;;;;7.13;2.67;;;;;;;;;;4963123;28;92527;-84
2023/08/02 02:58:57;;;;;;;9.43;2.80;;;;;;;;;;4974634;28;92027;-83
2023/08/02 03:01:24;;;;;;;7.47;2.50;;;;;;;;;;4949851;28;94795;-83
2023/08/02 03:03:50;;;;;;;6.82;2.40;;;;;;;;;;4949653;28;98546;-82
2023/08/02 03:06:17;;;;;;;9.50;2.80;;;;;;;;;;4944399;28;93700;-84
2023/08/02 03:08:43;;;;;;;8.55;2.55;;;;;;;;;;4935344;28;92462;-85
2023/08/02 03:11:10;;;;;;;9.10;2.53;;;;;;;;;;4940414;28;92833;-85
2023/08/02 03:13:37;;;;;;;6.43;2.22;;;;;;;;;;4944927;28;92583;-84
2023/08/02 03:16:03;;;;;;;7.78;2.65;;;;;;;;;;4960277;28;92363;-85
2023/08/02 03:18:30;;;;;;;10.50;2.88;;;;;;;;;;4956121;28;93432;-84
2023/08/02 03:20:56;;;;;;;8.13;2.53;;;;;;;;;;4937424;28;92806;-84
2023/08/02 03:23:23;;;;;;;9.15;2.70;;;;;;;;;;4947837;28;92682;-86
2023/08/02 03:25:49;;;;;;;8.50;2.67;;;;;;;;;;4931909;28;95528;-84
2023/08/02 03:28:16;;;;;;;7.68;2.22;;;;;;;;;;4938105;28;92471;-84
2023/08/02 03:30:42;;;;;;;6.82;2.25;;;;;;;;;;4951833;28;92998;-84
2023/08/02 03:33:11;;;;;;;7.72;2.60;;;;;;;;;;4940020;28;92826;-84
2023/08/02 03:35:37;;;;;;;7.82;2.47;;;;;;;;;;4942286;28;92605;-84
2023/08/02 03:38:04;;;;;;;8.15;2.60;;;;;;;;;;4951978;28;93129;-84
2023/08/02 03:40:31;;;;;;;7.65;2.53;;;;;;;;;;4944547;28;93557;-84
2023/08/02 03:42:57;;;;;;;6.97;2.33;;;;;;;;;;4953057;28;93202;-85
2023/08/02 03:45:24;;;;;;;10.48;2.95;;;;;;;;;;4951986;28;94779;-83
2023/08/02 03:47:51;;;;;;;13.85;3.00;;;;;;;;;;4946911;28;92330;-85
2023/08/02 03:50:17;;;;;;;7.65;2.42;;;;;;;;;;4950451;28;94765;-84
2023/08/02 03:52:44;;;;;;;7.78;2.75;;;;;;;;;;4940481;28;92496;-84
2023/08/02 03:55:10;;;;;;;9.50;2.65;;;;;;;;;;4966243;28;92575;-84
2023/08/02 03:57:37;;;;;;;6.60;2.45;;;;;;;;;;4975126;28;92269;-84
2023/08/02 04:00:04;;;;;;;8.07;2.60;;;;;;;;;;4968803;28;92511;-83
2023/08/02 04:02:37;;;;;;;9.80;2.67;;;;;;;;;;4954006;28;92177;-84
2023/08/02 04:05:04;;;;;;;7.95;2.50;;;;;;;;;;4958214;28;95988;-85
2023/08/02 04:07:30;;;;;;;6.70;2.30;;;;;;;;;;4959021;28;91570;-84
2023/08/02 04:09:57;;;;;;;8.35;2.40;;;;;;;;;;4962041;28;92269;-84
2023/08/02 04:12:23;;;;;;;9.65;3.00;;;;;;;;;;4971060;28;92506;-84
2023/08/02 04:14:50;;;;;;;6.70;2.45;;;;;;;;;;4953022;28;94388;-85
2023/08/02 04:17:18;;;;;;;8.65;2.40;;;;;;;;;;4967781;28;93899;-84
2023/08/02 04:19:45;;;;;;;7.65;2.83;;;;;;;;;;4960811;28;93209;-82
2023/08/02 04:22:12;;;;;;;7.90;2.08;;;;;;;;;;4956711;28;92480;-82
2023/08/02 04:24:39;;;;;;;6.47;2.40;;;;;;;;;;4959250;28;92685;-83
2023/08/02 04:27:06;;;;;;;7.72;2.20;;;;;;;;;;4956566;28;92441;-83
2023/08/02 04:29:33;;;;;;;6.93;2.50;;;;;;;;;;4942911;28;92837;-84
2023/08/02 04:32:00;;;;;;;5.80;2.20;;;;;;;;;;4951032;28;92621;-84
2023/08/02 04:34:26;;;;;;;8.07;2.50;;;;;;;;;;4952210;28;92470;-83
2023/08/02 04:36:53;;;;;;;9.77;2.70;;;;;;;;;;4946086;28;93404;-84
2023/08/02 04:39:19;;;;;;;8.00;3.00;;;;;;;;;;4939066;28;95814;-83
2023/08/02 04:41:46;;;;;;;8.27;2.30;;;;;;;;;;4959965;28;92571;-83
2023/08/02 04:44:12;;;;;;;9.23;2.67;;;;;;;;;;4958130;28;92366;-84
2023/08/02 04:46:39;;;;;;;7.50;2.45;;;;;;;;;;4967389;28;93269;-83
2023/08/02 04:49:06;;;;;;;7.28;2.47;;;;;;;;;;4967812;28;92146;-84
2023/08/02 04:51:36;;;;;;;7.20;2.40;;;;;;;;;;4972171;28;92503;-83
2023/08/02 04:54:03;;;;;;;7.97;3.08;;;;;;;;;;4928490;28;93006;-86
2023/08/02 04:56:30;;;;;;;7.13;2.50;;;;;;;;;;4950498;28;92856;-85
2023/08/02 04:58:57;;;;;;;8.30;2.30;;;;;;;;;;4948417;28;93293;-83
2023/08/02 05:01:23;;;;;;;10.55;2.60;;;;;;;;;;4951624;28;92421;-85
2023/08/02 05:03:50;;;;;;;7.13;2.38;;;;;;;;;;4950422;28;95101;-87
2023/08/02 05:06:16;;;;;;;6.28;2.45;;;;;;;;;;4944504;28;93126;-86
2023/08/02 05:08:43;;;;;;;7.97;2.60;;;;;;;;;;4937351;28;92551;-86
2023/08/02 05:11:09;;;;;;;7.22;2.40;;;;;;;;;;4948021;28;93041;-86
2023/08/02 05:13:36;;;;;;;6.32;2.20;;;;;;;;;;4939050;28;92530;-85
2023/08/02 05:16:03;;;;;;;8.73;2.55;;;;;;;;;;4948365;28;92991;-86
2023/08/02 05:18:29;;;;;;;6.78;2.10;;;;;;;;;;4946299;28;93596;-84
2023/08/02 05:20:56;;;;;;;7.32;2.60;;;;;;;;;;4950982;28;91674;-86
2023/08/02 05:23:22;;;;;;;7.93;2.53;;;;;;;;;;4946248;28;92966;-85
2023/08/02 05:25:49;;;;;;;8.70;2.53;;;;;;;;;;4935041;28;93518;-85
2023/08/02 05:28:15;;;;;;;7.28;2.45;;;;;;;;;;4957215;28;95006;-86
2023/08/02 05:30:42;;;;;;;7.43;2.38;;;;;;;;;;4951611;28;94460;-86
2023/08/02 05:33:09;;;;;;;8.90;3.00;;;;;;;;;;4933615;28;94555;-87
2023/08/02 05:35:35;;;;;;;7.63;2.42;;;;;;;;;;4941481;28;93014;-86
2023/08/02 05:38:04;;;;;;;9.32;2.67;;;;;;;;;;4949267;28;93497;-88
2023/08/02 05:40:30;;;;;;;9.25;2.30;;;;;;;;;;4939328;28;92506;-85
2023/08/02 05:42:57;;;;;;;7.35;2.80;;;;;;;;;;4946888;28;92680;-85
2023/08/02 05:45:23;;;;;;;8.30;3.13;;;;;;;;;;4940557;28;92368;-85
2023/08/02 05:47:50;;;;;;;7.90;2.67;;;;;;;;;;4952777;28;92533;-86
2023/08/02 05:50:17;;;;;;;7.47;2.60;;;;;;;;;;4956301;28;92892;-86
2023/08/02 05:52:44;;;;;;;6.68;2.50;;;;;;;;;;4949569;28;95245;-87
2023/08/02 05:55:10;;;;;;;9.15;3.20;;;;;;;;;;4947366;28;95128;-85
2023/08/02 05:57:39;;;;;;;6.18;2.55;;;;;;;;;;4953037;28;93299;-86
2023/08/02 06:00:07;;;;;;;6.22;2.60;;;;;;;;;;4952902;28;92578;-85
2023/08/02 06:02:33;;;;;;;7.63;3.00;;;;;;;;;;4952662;28;92777;-85
2023/08/02 06:05:00;;;;;;;6.80;2.53;;;;;;;;;;4951220;28;93560;-84
2023/08/02 06:07:27;;;;;;;8.05;2.60;;;;;;;;;;4937045;28;92405;-85
2023/08/02 06:09:53;;;;;;;6.65;2.60;;;;;;;;;;4953044;28;92910;-86
2023/08/02 06:12:20;;;;;;;9.27;3.30;;;;;;;;;;4954209;28;94120;-86
2023/08/02 06:14:46;;;;;;;7.28;2.90;;;;;;;;;;4954131;28;93570;-85
2023/08/02 06:17:13;;;;;;;7.78;2.90;;;;;;;;;;4951075;28;95823;-86
2023/08/02 06:19:39;;;;;;;7.95;3.20;;;;;;;;;;4953203;28;93147;-84
2023/08/02 06:22:06;;;;;;;7.18;2.83;;;;;;;;;;4938913;28;93098;-85
2023/08/02 06:24:33;;;;;;;7.15;3.00;;;;;;;;;;4949518;28;93071;-85
2023/08/02 06:26:59;;;;;;;7.68;3.30;;;;;;;;;;4953784;28;93096;-86
2023/08/02 06:29:26;;;;;;;6.45;2.90;;;;;;;;;;4945085;28;93374;-86
2023/08/02 06:31:53;;;;;;;8.43;3.28;;;;;;;;;;4949417;28;94438;-86
2023/08/02 06:34:19;;;;;;;8.52;3.25;;;;;;;;;;4940119;28;91755;-86
2023/08/02 06:36:46;;;;;;;7.88;2.90;;;;;;;;;;4938246;28;95517;-86
2023/08/02 06:39:12;;;;;;;7.70;3.15;;;;;;;;;;4946133;28;92413;-87
2023/08/02 06:41:39;;;;;;;7.90;3.08;;;;;;;;;;4943965;28;95471;-86
2023/08/02 06:44:06;;;;;;;;;;;;;;;;;;4958165;28;95224;-86
2023/08/02 06:46:33;;;;;;;6.43;2.80;;;;;;;;;;4963022;28;104629;-87
2023/08/02 06:49:00;;;;;;;5.82;2.35;;;;;;;;;;4950104;28;93230;-82
2023/08/02 06:51:27;;;;;;;5.55;2.28;;;;;;;;;;4937484;28;93733;-81
2023/08/02 06:53:57;;;;;;;6.95;2.40;;;;;;;;;;4952102;28;92933;-81
2023/08/02 06:56:24;;;;;;;6.88;2.20;;;;;;;;;;4927952;28;92880;-81
2023/08/02 06:58:51;;;;;;;7.65;2.40;;;;;;;;;;4951655;28;91686;-82
2023/08/02 07:01:19;;;;;;;5.88;2.20;;;;;;;;;;4937928;28;92873;-82
2023/08/02 07:03:46;;;;;;;5.18;2.13;;;;;;;;;;4940360;28;94957;-83
2023/08/02 07:06:17;;;;;;;6.63;2.10;;;;;;;;;;4935461;28;95080;-83
2023/08/02 07:08:44;;;;;;;6.07;2.17;;;;;;;;;;4934061;28;95727;-80
2023/08/02 07:11:11;;;;;;;4.75;1.92;;;;;;;;;;4932070;28;94171;-81
2023/08/02 07:13:58;;;;;;;6.97;2.17;;;;;;;;;;4939785;28;92487;-81
2023/08/02 07:16:24;;;;;;;5.07;2.00;;;;;;;;;;4954184;28;93248;-81
2023/08/02 07:18:51;;;;;;;4.75;2.00;;;;;;;;;;4947627;28;92550;-82
2023/08/02 07:21:17;;;;;;;7.18;2.28;;;;;;;;;;4951823;28;93492;-82
2023/08/02 07:23:44;;;;;;;5.65;1.88;;;;;;;;;;4937429;28;92258;-82
2023/08/02 07:26:10;;;;;;;4.90;1.92;;;;;;;;;;4951851;28;93143;-83
2023/08/02 07:28:37;;;;;;;5.68;1.90;;;;;;;;;;4950316;28;92887;-81
2023/08/02 07:31:08;;;;;;;10.45;1.98;;;;;;;;;;4934718;28;96679;-81
2023/08/02 07:33:34;;;;;;;6.60;2.03;;;;;;;;;;4932354;28;92424;-82
2023/08/02 07:36:01;;;;;;;4.93;1.50;;;;;;;;;;4953593;28;93069;-82
2023/08/02 07:38:28;;;;;;;3.67;1.70;;;;;;;;;;4947911;28;93603;-82
2023/08/02 07:40:55;;;;;;;5.75;2.00;;;;;;;;;;4930267;28;92704;-83
2023/08/02 07:43:21;;;;;;;6.22;1.83;;;;;;;;;;4945982;28;92950;-82
2023/08/02 07:45:48;;;;;;;3.28;1.50;;;;;;;;;;4943140;28;92532;-83
2023/08/02 07:48:15;;;;;;;4.38;1.80;;;;;;;;;;4933633;28;94310;-82
2023/08/02 07:50:41;;;;;;;3.90;1.60;;;;;;;;;;4952356;28;93106;-83
2023/08/02 07:53:08;;;;;;;5.60;1.75;;;;;;;;;;4944835;28;93112;-83
2023/08/02 07:55:34;;;;;;;25.05;18.88;;;;;;;;;;4938466;28;94776;-85
2023/08/02 07:58:01;;;;;;;28.17;21.77;;;;;;;;;;4945786;28;93056;-85
2023/08/02 08:00:27;;;;;;;17.90;13.00;;;;;;;;;;4946436;28;92698;-87
2023/08/02 08:02:54;;;;;;;17.63;12.10;;;;;;;;;;4945778;28;93233;-87
2023/08/02 08:05:20;;;;;;;15.52;10.35;;;;;;;;;;4937407;28;92536;-87
2023/08/02 08:07:47;;;;;;;12.65;8.20;;;;;;;;;;4936718;28;93426;-88
2023/08/02 08:10:13;;;;;;;14.48;9.48;;;;;;;;;;4939433;28;93685;-87
2023/08/02 08:12:40;;;;;;;13.88;7.97;;;;;;;;;;4947715;28;91734;-85
2023/08/02 08:15:07;;;;;;;13.82;9.02;;;;;;;;;;4930114;28;93480;-86
2023/08/02 08:17:34;;;;;;;13.07;8.63;;;;;;;;;;4944582;28;93187;-87
2023/08/02 08:20:03;;;;;;;12.95;8.27;;;;;;;;;;4937600;28;95009;-85
2023/08/02 08:22:30;;;;;;;11.85;7.60;;;;;;;;;;4936048;28;94345;-86
2023/08/02 08:24:56;;;;;;;12.45;7.20;;;;;;;;;;4946358;28;92535;-83
2023/08/02 08:27:23;;;;;;;11.60;7.03;;;;;;;;;;4949913;28;92971;-85
2023/08/02 08:29:49;;;;;;;14.25;5.93;;;;;;;;;;4948236;28;93875;-82
2023/08/02 08:32:16;;;;;;;9.82;5.47;;;;;;;;;;4959135;28;92283;-84
2023/08/02 08:34:43;;;;;;;;;;;;;;;;;;4953146;28;93458;-84
2023/08/02 08:37:10;;;;;;;12.10;6.03;;;;;;;;;;4964944;28;109991;-83
2023/08/02 08:39:37;;;;;;;10.80;5.35;;;;;;;;;;4943514;28;92466;-84
2023/08/02 08:42:07;;;;;;;10.40;5.50;;;;;;;;;;4935489;28;92410;-85
2023/08/02 08:44:37;;;;;;;10.60;5.38;;;;;;;;;;4941954;28;95226;-88
2023/08/02 08:47:05;;;;;;;8.88;4.97;;;;;;;;;;4929359;28;95215;-84
2023/08/02 08:49:32;;;;;;;10.48;5.30;;;;;;;;;;4924338;28;93430;-86
2023/08/02 08:52:04;;;;;;;8.05;4.03;;;;;;;;;;4931898;28;92950;-88
2023/08/02 08:54:31;;;;;;;9.52;5.07;;;;;;;;;;4937861;28;92897;-87
2023/08/02 08:56:58;;;;;;;10.55;5.95;;;;;;;;;;4937036;28;93446;-87
2023/08/02 08:59:25;;;;;;;10.60;6.13;;;;;;;;;;4936761;28;92459;-85
2023/08/02 09:01:51;;;;;;;10.52;5.05;;;;;;;;;;4941025;28;95860;-87
2023/08/02 09:04:18;;;;;;;9.20;4.68;;;;;;;;;;4931426;28;96041;-86
2023/08/02 09:06:45;;;;;;;11.07;5.65;;;;;;;;;;4934190;28;92681;-85
2023/08/02 09:09:14;;;;;;;12.25;6.25;;;;;;;;;;4932745;28;95475;-85
2023/08/02 09:11:44;;;;;;;14.90;8.02;;;;;;;;;;4937559;28;93594;-86
2023/08/02 09:14:12;;;;;;;12.23;6.63;;;;;;;;;;4935525;28;94099;-86
2023/08/02 09:16:58;;;;;;;16.88;9.10;;;;;;;;;;4931715;28;93018;-89
2023/08/02 09:19:24;;;;;;;;;;;;;;;;;;4939240;28;92813;-85
2023/08/02 09:22:11;;;;;;;18.70;9.82;;;;;;;;;;4935553;28;115101;-85
2023/08/02 09:24:39;;;;;;;18.20;10.43;;;;;;;;;;4939715;28;93171;-86
2023/08/02 09:27:06;;;;;;;16.83;8.43;;;;;;;;;;4947400;28;91754;-85
2023/08/02 09:29:49;;;;;;;18.52;10.10;;;;;;;;;;4940470;28;93048;-86
2023/08/02 09:32:16;;;;;;;15.85;9.32;;;;;;;;;;4932196;28;92622;-86
2023/08/02 09:34:53;;;;;;;17.45;9.55;;;;;;;;;;4931448;28;95519;-85
2023/08/02 09:37:29;;;;;;;16.88;8.40;;;;;;;;;;4946270;28;93174;-85
2023/08/02 09:39:56;;;;;;;16.30;8.77;;;;;;;;;;4941450;28;92461;-84
2023/08/02 09:42:27;;;;;;;16.92;7.88;;;;;;;;;;4953729;28;92740;-85
2023/08/02 09:45:06;;;;;;;16.67;8.45;;;;;;;;;;4961092;28;92531;-86
2023/08/02 09:47:32;;;;;;;15.90;8.02;;;;;;;;;;4959782;28;92499;-85
2023/08/02 09:50:16;;;;;;;14.18;7.75;;;;;;;;;;4947407;28;92614;-85
2023/08/02 09:52:42;;;;;;;15.25;6.97;;;;;;;;;;4943473;28;91735;-84
2023/08/02 09:55:09;;;;;;;13.32;7.18;;;;;;;;;;4954980;28;92719;-84
2023/08/02 09:57:35;;;;;;;12.63;6.57;;;;;;;;;;4948420;28;92429;-85
2023/08/02 10:00:06;;;;;;;13.38;7.10;;;;;;;;;;4936716;28;95578;-86
2023/08/02 10:02:42;;;;;;;12.90;6.65;;;;;;;;;;4938268;28;95276;-84
2023/08/02 10:05:15;;;;;;;10.55;5.60;;;;;;;;;;4946447;28;92982;-82
2023/08/02 10:07:49;;;;;;;10.18;4.95;;;;;;;;;;4937530;28;93059;-84
2023/08/02 10:10:29;;;;;;;11.25;4.70;;;;;;;;;;4951586;28;92886;-84
2023/08/02 10:12:59;;;;;;;8.68;4.13;;;;;;;;;;4949099;28;94055;-85
2023/08/02 10:15:26;;;;;;;10.60;4.13;;;;;;;;;;4951508;28;92703;-84
2023/08/02 10:17:54;;;;;;;7.63;2.95;;;;;;;;;;4940795;28;93706;-82
2023/08/02 10:20:22;;;;;;;5.32;2.30;;;;;;;;;;4949681;28;92397;-82
2023/08/02 10:22:50;;;;;;;4.45;1.90;;;;;;;;;;4946731;28;93600;-83
2023/08/02 10:25:17;;;;;;;5.60;2.30;;;;;;;;;;4952706;28;95664;-83
2023/08/02 10:27:45;;;;;;;3.70;1.85;;;;;;;;;;4969172;28;92975;-82
2023/08/02 10:30:12;;;;;;;3.33;2.05;;;;;;;;;;4970192;28;94481;-82
2023/08/02 10:32:39;;;;;;;4.15;2.03;;;;;;;;;;4952350;28;92427;-82
2023/08/02 10:35:06;;;;;;;3.85;2.00;;;;;;;;;;4936125;28;92664;-81
2023/08/02 10:37:51;;;;;;;4.95;1.80;;;;;;;;;;4940585;28;93056;-82
2023/08/02 10:40:21;;;;;;;3.53;1.83;;;;;;;;;;4933134;28;92435;-82
2023/08/02 10:43:06;;;;;;;3.53;1.77;;;;;;;;;;4935206;28;92904;-82
2023/08/02 10:45:33;;;;;;;5.15;1.95;;;;;;;;;;4953421;28;93214;-84
2023/08/02 10:48:21;;;;;;;4.05;1.70;;;;;;;;;;4954571;28;92320;-85
2023/08/02 10:50:50;;;;;;;3.15;1.60;;;;;;;;;;4930500;28;94859;-83
2023/08/02 10:53:16;;;;;;;4.07;1.50;;;;;;;;;;4951513;28;93643;-85
2023/08/02 10:56:03;;;;;;;2.35;1.45;;;;;;;;;;4938189;28;92431;-84
2023/08/02 10:58:48;;;;;;;3.97;1.70;;;;;;;;;;4930722;28;92878;-82
2023/08/02 11:01:14;;;;;;;3.28;1.55;;;;;;;;;;4952655;28;92879;-84
2023/08/02 11:03:41;;;;;;;4.45;1.75;;;;;;;;;;4941944;28;92849;-84
2023/08/02 11:06:22;;;;;;;3.72;1.90;;;;;;;;;;4953185;28;95776;-84
2023/08/02 11:08:49;;;;;;;3.67;2.05;;;;;;;;;;4936857;28;92074;-82
2023/08/02 11:11:26;;;;;;;4.15;1.67;;;;;;;;;;4929190;28;92853;-84
2023/08/02 11:13:52;;;;;;;3.88;1.83;;;;;;;;;;4954624;28;93429;-85
2023/08/02 11:16:19;;;;;;;5.07;1.83;;;;;;;;;;4943774;28;94874;-84
2023/08/02 11:18:47;;;;;;;;;;;;;;;;;;4929793;28;95098;-83
2023/08/02 11:21:14;;;;;;;5.70;1.70;;;;;;;;;;4954771;28;107528;-82
2023/08/02 11:23:41;;;;;;;2.42;1.58;;;;;;;;;;4941136;28;93287;-82
2023/08/02 11:26:14;;;;;;;6.80;1.75;;;;;;;;;;4943380;28;95986;-83
2023/08/02 11:28:44;;;;;;;8.05;1.80;;;;;;;;;;4938467;28;93030;-81
2023/08/02 11:31:11;;;;;;;4.03;1.70;;;;;;;;;;4942002;28;92912;-82
2023/08/02 11:33:38;;;;;;;6.60;1.80;;;;;;;;;;4945680;28;91861;-84
2023/08/02 11:36:05;;;;;;;4.65;1.55;;;;;;;;;;4939447;28;92494;-83
2023/08/02 11:38:32;;;;;;;6.65;1.52;;;;;;;;;;4943285;28;93407;-83
2023/08/02 11:40:58;;;;;;;5.80;1.42;;;;;;;;;;4945112;28;97583;-82
2023/08/02 11:43:34;;;;;;;5.60;1.50;;;;;;;;;;4949581;28;95743;-84
2023/08/02 11:46:15;;;;;;;5.10;1.40;;;;;;;;;;4950576;28;93315;-83
2023/08/02 11:48:44;;;;;;;5.95;1.67;;;;;;;;;;4939048;28;92588;-84
2023/08/02 11:51:12;;;;;;;5.85;1.48;;;;;;;;;;4952325;28;92672;-83
2023/08/02 11:53:52;;;;;;;6.72;1.48;;;;;;;;;;4946796;28;93961;-83
2023/08/02 11:56:28;;;;;;;6.18;1.40;;;;;;;;;;4954118;28;92520;-84
2023/08/02 11:58:56;;;;;;;7.05;1.70;;;;;;;;;;4926741;28;95861;-83
2023/08/02 12:01:22;;;;;;;9.50;2.05;;;;;;;;;;4942626;28;94117;-83
2023/08/02 12:03:55;;;;;;;6.75;1.58;;;;;;;;;;4949700;28;92472;-84
2023/08/02 12:06:22;;;;;;;7.10;1.75;;;;;;;;;;4948445;28;96258;-83
2023/08/02 12:08:49;;;;;;;;;;;;;;;;;;4956976;28;92450;-84
2023/08/02 12:11:16;;;;;;;5.65;1.50;;;;;;;;;;4955313;28;107316;-83
2023/08/02 12:13:43;;;;;;;8.25;1.77;;;;;;;;;;4952231;28;95889;-83
2023/08/02 12:16:11;;;;;;;6.95;1.90;;;;;;;;;;4954779;28;92400;-84
2023/08/02 12:18:51;;;;;;;6.82;1.45;;;;;;;;;;4948794;28;94998;-82
2023/08/02 12:21:18;;;;;;;7.07;1.40;;;;;;;;;;4955729;28;93478;-85
2023/08/02 12:23:45;;;;;;;5.97;1.25;;;;;;;;;;4970590;28;91599;-84
2023/08/02 12:26:11;;;;;;;5.40;1.40;;;;;;;;;;4967725;28;93263;-84
2023/08/02 12:28:45;;;;;;;6.90;1.42;;;;;;;;;;4959390;28;92471;-85
2023/08/02 12:31:12;;;;;;;4.20;1.30;;;;;;;;;;4964745;28;95519;-84
2023/08/02 12:33:39;;;;;;;6.05;1.20;;;;;;;;;;4947325;28;92593;-85
2023/08/02 12:36:06;;;;;;;6.15;1.40;;;;;;;;;;4952489;28;92449;-85
2023/08/02 12:38:33;;;;;;;4.05;1.13;;;;;;;;;;4946708;28;94334;-85
2023/08/02 12:41:00;;;;;;;6.40;1.33;;;;;;;;;;4949292;28;92486;-85
2023/08/02 12:43:27;;;;;;;6.45;1.42;;;;;;;;;;4964976;28;93008;-85
2023/08/02 12:45:53;;;;;;;5.10;1.30;;;;;;;;;;4943833;28;92759;-85
2023/08/02 12:48:20;;;;;;;5.13;1.15;;;;;;;;;;4940510;28;95137;-85
2023/08/02 12:50:47;;;;;;;6.53;1.15;;;;;;;;;;4935648;28;92555;-84
2023/08/02 12:53:14;;;;;;;5.82;1.30;;;;;;;;;;4951000;28;94182;-84
2023/08/02 12:55:40;;;;;;;4.13;0.93;;;;;;;;;;4941496;28;94816;-84
2023/08/02 12:58:07;;;;;;;3.97;1.20;;;;;;;;;;4945493;28;96568;-84
2023/08/02 13:00:34;;;;;;;6.80;1.20;;;;;;;;;;4952278;28;94365;-84
2023/08/02 13:03:00;;;;;;;5.00;1.10;;;;;;;;;;4942792;28;92658;-84
2023/08/02 13:05:27;;;;;;;5.43;1.17;;;;;;;;;;4939443;28;97375;-84
2023/08/02 13:07:56;;;;;;;5.07;1.00;;;;;;;;;;4941999;28;93319;-84
2023/08/02 13:10:23;;;;;;;4.53;1.08;;;;;;;;;;4953546;28;93243;-83
2023/08/02 13:12:49;;;;;;;6.28;1.10;;;;;;;;;;4934822;28;95673;-85
2023/08/02 13:15:16;;;;;;;4.93;1.20;;;;;;;;;;4945322;28;92926;-86
2023/08/02 13:17:46;;;;;;;5.68;1.27;;;;;;;;;;4953613;28;92965;-85
2023/08/02 13:20:14;;;;;;;4.35;1.05;;;;;;;;;;4941627;28;95351;-85
2023/08/02 13:22:40;;;;;;;6.60;1.00;;;;;;;;;;4934828;28;92913;-84
2023/08/02 13:25:07;;;;;;;5.68;1.15;;;;;;;;;;4943194;28;93352;-85
2023/08/02 13:27:34;;;;;;;5.82;1.10;;;;;;;;;;4952283;28;95995;-84
2023/08/02 13:30:01;;;;;;;6.35;1.15;;;;;;;;;;4953576;28;92500;-85
2023/08/02 13:32:34;;;;;;;5.13;1.02;;;;;;;;;;4945858;28;95726;-85
2023/08/02 13:35:01;;;;;;;4.25;1.10;;;;;;;;;;4932665;28;92469;-85
2023/08/02 13:37:30;;;;;;;4.28;1.00;;;;;;;;;;4938044;28;95618;-85
2023/08/02 13:39:57;;;;;;;4.85;1.10;;;;;;;;;;4951096;28;92563;-85
2023/08/02 13:42:23;;;;;;;5.38;0.93;;;;;;;;;;4954016;28;92932;-84
2023/08/02 13:44:51;;;;;;;3.60;0.90;;;;;;;;;;4952627;28;94845;-85
2023/08/02 13:47:17;;;;;;;5.35;0.95;;;;;;;;;;4940309;28;93214;-84
2023/08/02 13:49:45;;;;;;;6.93;1.00;;;;;;;;;;4953931;28;92489;-84
2023/08/02 13:52:11;;;;;;;5.65;0.90;;;;;;;;;;4945330;28;92960;-85
2023/08/02 13:54:38;;;;;;;5.10;1.10;;;;;;;;;;4947453;28;92440;-86
2023/08/02 13:57:05;;;;;;;3.70;0.90;;;;;;;;;;4939610;28;92912;-85
2023/08/02 13:59:32;;;;;;;3.67;0.90;;;;;;;;;;4941060;28;93855;-85
2023/08/02 14:01:58;;;;;;;3.70;0.90;;;;;;;;;;4950510;28;91950;-84
2023/08/02 14:04:25;;;;;;;5.50;1.10;;;;;;;;;;4945189;28;92450;-85
2023/08/02 14:06:52;;;;;;;3.65;0.88;;;;;;;;;;4946072;28;93286;-85
2023/08/02 14:09:20;;;;;;;2.40;0.90;;;;;;;;;;4950089;28;94896;-86
2023/08/02 14:11:46;;;;;;;7.18;1.05;;;;;;;;;;4952965;28;95232;-87
2023/08/02 14:14:13;;;;;;;6.90;1.08;;;;;;;;;;4956220;28;95266;-86
2023/08/02 14:16:39;;;;;;;6.70;1.17;;;;;;;;;;4958948;28;94340;-87
2023/08/02 14:19:06;;;;;;;7.72;1.10;;;;;;;;;;4957080;28;92491;-86
2023/08/02 14:21:33;;;;;;;6.43;1.20;;;;;;;;;;4946609;28;92528;-87
2023/08/02 14:23:59;;;;;;;7.80;1.27;;;;;;;;;;4953131;28;92370;-86
2023/08/02 14:26:26;;;;;;;4.68;1.10;;;;;;;;;;4953423;28;92383;-86
2023/08/02 14:28:53;;;;;;;5.22;1.88;;;;;;;;;;4950951;28;92612;-85
2023/08/02 14:31:20;;;;;;;6.45;1.42;;;;;;;;;;4935037;28;93136;-86
2023/08/02 14:33:47;;;;;;;9.85;1.70;;;;;;;;;;4932511;28;95707;-86
2023/08/02 14:36:13;;;;;;;7.30;1.30;;;;;;;;;;4925920;28;92648;-86
2023/08/02 14:38:40;;;;;;;8.27;1.60;;;;;;;;;;4945080;28;93254;-86
2023/08/02 14:41:06;;;;;;;9.23;1.60;;;;;;;;;;4948580;28;93300;-86
2023/08/02 14:43:33;;;;;;;8.85;1.75;;;;;;;;;;4947174;28;92905;-87
2023/08/02 14:46:00;;;;;;;9.75;1.80;;;;;;;;;;4945763;28;93246;-86